sensor_id;sensor_type;location;lat;lon;timestamp;P1;durP1;ratioP1;P2;durP2;ratioP2
10687;SDS011;5392;42.688;23.298;2023-09-12T00:01:22;4.03;;;1.00;;
10687;SDS011;5392;42.688;23.298;2023-09-12T00:03:49;1.70;;;0.70;;
10687;SDS011;5392;42.688;23.298;2023-09-12T00:06:16;2.70;;;0.90;;
10687;SDS011;5392;42.688;23.298;2023-09-12T00:08:43;2.05;;;0.70;;
10687;SDS011;5392;42.688;23.298;2023-09-12T00:11:10;3.00;;;0.85;;
10687;SDS011;5392;42.688;23.298;2023-09-12T00:13:38;7.03;;;0.85;;
10687;SDS011;5392;42.688;23.298;2023-09-12T00:16:06;1.90;;;0.80;;
10687;SDS011;5392;42.688;23.298;2023-09-12T00:18:39;1.73;;;0.90;;
10687;SDS011;5392;42.688;23.298;2023-09-12T00:21:06;3.17;;;0.80;;
10687;SDS011;5392;42.688;23.298;2023-09-12T00:23:33;2.95;;;0.80;;
10687;SDS011;5392;42.688;23.298;2023-09-12T00:26:00;1.40;;;0.80;;
10687;SDS011;5392;42.688;23.298;2023-09-12T00:28:27;1.48;;;0.90;;
10687;SDS011;5392;42.688;23.298;2023-09-12T00:30:54;1.60;;;0.70;;
10687;SDS011;5392;42.688;23.298;2023-09-12T00:33:21;3.72;;;0.90;;
10687;SDS011;5392;42.688;23.298;2023-09-12T00:35:47;1.15;;;0.80;;
10687;SDS011;5392;42.688;23.298;2023-09-12T00:38:14;3.22;;;0.98;;
10687;SDS011;5392;42.688;23.298;2023-09-12T00:40:41;3.15;;;0.80;;
10687;SDS011;5392;42.688;23.298;2023-09-12T00:43:08;3.22;;;1.10;;
10687;SDS011;5392;42.688;23.298;2023-09-12T00:45:34;2.85;;;1.10;;
10687;SDS011;5392;42.688;23.298;2023-09-12T00:48:01;2.17;;;1.08;;
10687;SDS011;5392;42.688;23.298;2023-09-12T00:50:31;3.03;;;0.95;;
10687;SDS011;5392;42.688;23.298;2023-09-12T00:52:59;1.77;;;0.70;;
10687;SDS011;5392;42.688;23.298;2023-09-12T00:55:28;0.88;;;0.60;;
10687;SDS011;5392;42.688;23.298;2023-09-12T00:57:58;1.73;;;0.70;;
10687;SDS011;5392;42.688;23.298;2023-09-12T01:00:25;7.93;;;1.00;;
10687;SDS011;5392;42.688;23.298;2023-09-12T01:02:52;3.63;;;0.60;;
10687;SDS011;5392;42.688;23.298;2023-09-12T01:05:21;1.52;;;0.80;;
10687;SDS011;5392;42.688;23.298;2023-09-12T01:07:49;1.13;;;0.70;;
10687;SDS011;5392;42.688;23.298;2023-09-12T01:10:16;0.93;;;0.70;;
10687;SDS011;5392;42.688;23.298;2023-09-12T01:12:42;1.75;;;0.77;;
10687;SDS011;5392;42.688;23.298;2023-09-12T01:15:10;4.57;;;0.60;;
10687;SDS011;5392;42.688;23.298;2023-09-12T01:17:41;5.85;;;0.73;;
10687;SDS011;5392;42.688;23.298;2023-09-12T01:20:46;2.00;;;0.80;;
10687;SDS011;5392;42.688;23.298;2023-09-12T01:28:27;4.82;;;1.08;;
10687;SDS011;5392;42.688;23.298;2023-09-12T01:30:57;1.33;;;1.10;;
10687;SDS011;5392;42.688;23.298;2023-09-12T01:33:26;2.78;;;1.20;;
10687;SDS011;5392;42.688;23.298;2023-09-12T01:35:54;3.05;;;0.90;;
10687;SDS011;5392;42.688;23.298;2023-09-12T01:38:21;6.18;;;0.90;;
10687;SDS011;5392;42.688;23.298;2023-09-12T01:40:49;3.33;;;0.80;;
10687;SDS011;5392;42.688;23.298;2023-09-12T01:43:19;5.72;;;1.30;;
10687;SDS011;5392;42.688;23.298;2023-09-12T01:45:49;4.38;;;1.10;;
10687;SDS011;5392;42.688;23.298;2023-09-12T01:48:21;1.85;;;1.05;;
10687;SDS011;5392;42.688;23.298;2023-09-12T01:50:51;1.73;;;0.88;;
10687;SDS011;5392;42.688;23.298;2023-09-12T01:53:18;1.73;;;1.00;;
10687;SDS011;5392;42.688;23.298;2023-09-12T01:55:46;2.25;;;1.15;;
10687;SDS011;5392;42.688;23.298;2023-09-12T01:58:14;2.88;;;1.17;;
10687;SDS011;5392;42.688;23.298;2023-09-12T02:00:41;2.72;;;1.33;;
10687;SDS011;5392;42.688;23.298;2023-09-12T02:03:08;4.03;;;1.10;;
10687;SDS011;5392;42.688;23.298;2023-09-12T02:05:35;1.50;;;1.38;;
10687;SDS011;5392;42.688;23.298;2023-09-12T02:08:04;2.55;;;2.00;;
10687;SDS011;5392;42.688;23.298;2023-09-12T02:10:31;2.35;;;1.20;;
10687;SDS011;5392;42.688;23.298;2023-09-12T02:12:58;2.05;;;1.08;;
10687;SDS011;5392;42.688;23.298;2023-09-12T02:15:25;1.90;;;1.08;;
10687;SDS011;5392;42.688;23.298;2023-09-12T02:17:52;3.38;;;1.25;;
10687;SDS011;5392;42.688;23.298;2023-09-12T02:20:19;9.98;;;1.70;;
10687;SDS011;5392;42.688;23.298;2023-09-12T02:22:46;8.23;;;1.38;;
10687;SDS011;5392;42.688;23.298;2023-09-12T02:25:13;3.00;;;1.23;;
10687;SDS011;5392;42.688;23.298;2023-09-12T02:27:41;4.40;;;1.63;;
10687;SDS011;5392;42.688;23.298;2023-09-12T02:30:08;4.47;;;1.90;;
10687;SDS011;5392;42.688;23.298;2023-09-12T02:32:35;3.65;;;1.80;;
10687;SDS011;5392;42.688;23.298;2023-09-12T02:35:02;2.65;;;1.40;;
10687;SDS011;5392;42.688;23.298;2023-09-12T02:37:29;5.13;;;1.30;;
10687;SDS011;5392;42.688;23.298;2023-09-12T02:39:56;2.45;;;1.85;;
10687;SDS011;5392;42.688;23.298;2023-09-12T02:42:23;3.20;;;1.30;;
10687;SDS011;5392;42.688;23.298;2023-09-12T02:44:50;3.42;;;1.40;;
10687;SDS011;5392;42.688;23.298;2023-09-12T02:47:18;5.85;;;1.67;;
10687;SDS011;5392;42.688;23.298;2023-09-12T02:49:45;3.38;;;1.58;;
10687;SDS011;5392;42.688;23.298;2023-09-12T02:52:12;3.05;;;1.48;;
10687;SDS011;5392;42.688;23.298;2023-09-12T02:54:39;6.55;;;1.60;;
10687;SDS011;5392;42.688;23.298;2023-09-12T02:57:06;4.72;;;2.50;;
10687;SDS011;5392;42.688;23.298;2023-09-12T02:59:33;6.50;;;3.17;;
10687;SDS011;5392;42.688;23.298;2023-09-12T03:01:59;3.53;;;1.88;;
10687;SDS011;5392;42.688;23.298;2023-09-12T03:04:26;1.95;;;1.60;;
10687;SDS011;5392;42.688;23.298;2023-09-12T03:06:56;3.90;;;1.75;;
10687;SDS011;5392;42.688;23.298;2023-09-12T03:09:23;3.83;;;1.50;;
10687;SDS011;5392;42.688;23.298;2023-09-12T03:11:50;5.50;;;1.83;;
10687;SDS011;5392;42.688;23.298;2023-09-12T03:14:17;2.88;;;1.40;;
10687;SDS011;5392;42.688;23.298;2023-09-12T03:16:44;7.93;;;2.00;;
10687;SDS011;5392;42.688;23.298;2023-09-12T03:19:11;9.90;;;2.00;;
10687;SDS011;5392;42.688;23.298;2023-09-12T03:21:37;4.88;;;2.08;;
10687;SDS011;5392;42.688;23.298;2023-09-12T03:24:05;6.82;;;2.65;;
10687;SDS011;5392;42.688;23.298;2023-09-12T03:26:33;3.60;;;2.72;;
10687;SDS011;5392;42.688;23.298;2023-09-12T03:29:01;3.55;;;1.42;;
10687;SDS011;5392;42.688;23.298;2023-09-12T03:31:29;7.05;;;2.10;;
10687;SDS011;5392;42.688;23.298;2023-09-12T03:33:55;4.55;;;2.28;;
10687;SDS011;5392;42.688;23.298;2023-09-12T03:36:22;5.20;;;3.40;;
10687;SDS011;5392;42.688;23.298;2023-09-12T03:38:49;8.82;;;1.85;;
10687;SDS011;5392;42.688;23.298;2023-09-12T03:41:16;11.68;;;2.88;;
10687;SDS011;5392;42.688;23.298;2023-09-12T03:43:43;5.93;;;2.42;;
10687;SDS011;5392;42.688;23.298;2023-09-12T03:46:10;10.95;;;2.50;;
10687;SDS011;5392;42.688;23.298;2023-09-12T03:48:37;4.05;;;2.45;;
10687;SDS011;5392;42.688;23.298;2023-09-12T03:51:04;2.85;;;1.40;;
10687;SDS011;5392;42.688;23.298;2023-09-12T03:53:31;4.78;;;1.95;;
10687;SDS011;5392;42.688;23.298;2023-09-12T03:55:58;4.05;;;1.83;;
10687;SDS011;5392;42.688;23.298;2023-09-12T03:58:25;4.40;;;2.35;;
10687;SDS011;5392;42.688;23.298;2023-09-12T04:00:52;4.00;;;2.25;;
10687;SDS011;5392;42.688;23.298;2023-09-12T04:03:20;4.93;;;2.20;;
10687;SDS011;5392;42.688;23.298;2023-09-12T04:05:47;2.05;;;1.95;;
10687;SDS011;5392;42.688;23.298;2023-09-12T04:08:14;4.15;;;2.10;;
10687;SDS011;5392;42.688;23.298;2023-09-12T04:10:42;3.85;;;2.10;;
10687;SDS011;5392;42.688;23.298;2023-09-12T04:13:28;4.95;;;1.92;;
10687;SDS011;5392;42.688;23.298;2023-09-12T04:15:55;6.78;;;2.30;;
10687;SDS011;5392;42.688;23.298;2023-09-12T04:18:23;7.93;;;3.45;;
10687;SDS011;5392;42.688;23.298;2023-09-12T04:20:50;5.60;;;3.08;;
10687;SDS011;5392;42.688;23.298;2023-09-12T04:23:16;11.00;;;5.30;;
10687;SDS011;5392;42.688;23.298;2023-09-12T04:25:45;15.43;;;5.03;;
10687;SDS011;5392;42.688;23.298;2023-09-12T04:28:12;7.13;;;3.70;;
10687;SDS011;5392;42.688;23.298;2023-09-12T04:30:39;8.50;;;3.25;;
10687;SDS011;5392;42.688;23.298;2023-09-12T04:33:08;8.25;;;3.58;;
10687;SDS011;5392;42.688;23.298;2023-09-12T04:35:35;10.65;;;3.13;;
10687;SDS011;5392;42.688;23.298;2023-09-12T04:38:02;12.32;;;3.28;;
10687;SDS011;5392;42.688;23.298;2023-09-12T04:40:29;9.20;;;3.08;;
10687;SDS011;5392;42.688;23.298;2023-09-12T04:42:56;9.82;;;2.72;;
10687;SDS011;5392;42.688;23.298;2023-09-12T04:45:23;11.25;;;2.97;;
10687;SDS011;5392;42.688;23.298;2023-09-12T04:47:49;17.20;;;5.45;;
10687;SDS011;5392;42.688;23.298;2023-09-12T04:50:16;9.85;;;3.05;;
10687;SDS011;5392;42.688;23.298;2023-09-12T04:52:43;9.95;;;2.33;;
10687;SDS011;5392;42.688;23.298;2023-09-12T04:55:09;8.20;;;2.45;;
10687;SDS011;5392;42.688;23.298;2023-09-12T04:57:36;18.35;;;2.80;;
10687;SDS011;5392;42.688;23.298;2023-09-12T05:00:06;8.38;;;3.03;;
10687;SDS011;5392;42.688;23.298;2023-09-12T05:02:34;9.82;;;2.88;;
10687;SDS011;5392;42.688;23.298;2023-09-12T05:05:01;12.13;;;3.25;;
10687;SDS011;5392;42.688;23.298;2023-09-12T05:07:28;8.93;;;2.58;;
10687;SDS011;5392;42.688;23.298;2023-09-12T05:09:54;8.88;;;3.30;;
10687;SDS011;5392;42.688;23.298;2023-09-12T05:12:21;6.55;;;2.28;;
10687;SDS011;5392;42.688;23.298;2023-09-12T05:14:48;6.45;;;2.45;;
10687;SDS011;5392;42.688;23.298;2023-09-12T05:17:15;8.75;;;3.00;;
10687;SDS011;5392;42.688;23.298;2023-09-12T05:19:41;7.03;;;2.53;;
10687;SDS011;5392;42.688;23.298;2023-09-12T05:22:09;10.30;;;2.60;;
10687;SDS011;5392;42.688;23.298;2023-09-12T05:24:35;6.93;;;2.72;;
10687;SDS011;5392;42.688;23.298;2023-09-12T05:27:02;12.38;;;2.80;;
10687;SDS011;5392;42.688;23.298;2023-09-12T05:29:30;7.53;;;3.03;;
10687;SDS011;5392;42.688;23.298;2023-09-12T05:31:56;18.35;;;3.72;;
10687;SDS011;5392;42.688;23.298;2023-09-12T05:34:23;9.93;;;3.70;;
10687;SDS011;5392;42.688;23.298;2023-09-12T05:36:50;13.88;;;4.10;;
10687;SDS011;5392;42.688;23.298;2023-09-12T05:39:17;12.35;;;4.20;;
10687;SDS011;5392;42.688;23.298;2023-09-12T05:41:44;3.83;;;3.13;;
10687;SDS011;5392;42.688;23.298;2023-09-12T05:44:11;14.73;;;3.72;;
10687;SDS011;5392;42.688;23.298;2023-09-12T05:46:47;6.03;;;3.60;;
10687;SDS011;5392;42.688;23.298;2023-09-12T05:49:14;10.77;;;3.67;;
10687;SDS011;5392;42.688;23.298;2023-09-12T05:51:41;8.38;;;3.88;;
10687;SDS011;5392;42.688;23.298;2023-09-12T05:54:09;12.77;;;3.60;;
10687;SDS011;5392;42.688;23.298;2023-09-12T05:56:37;11.07;;;4.57;;
10687;SDS011;5392;42.688;23.298;2023-09-12T05:59:03;6.65;;;2.97;;
10687;SDS011;5392;42.688;23.298;2023-09-12T06:01:30;6.80;;;3.55;;
10687;SDS011;5392;42.688;23.298;2023-09-12T06:03:57;8.13;;;3.53;;
10687;SDS011;5392;42.688;23.298;2023-09-12T06:06:24;3.85;;;3.47;;
10687;SDS011;5392;42.688;23.298;2023-09-12T06:08:51;6.55;;;3.38;;
10687;SDS011;5392;42.688;23.298;2023-09-12T06:11:19;10.95;;;3.92;;
10687;SDS011;5392;42.688;23.298;2023-09-12T06:13:46;7.45;;;4.15;;
10687;SDS011;5392;42.688;23.298;2023-09-12T06:16:13;7.90;;;3.45;;
10687;SDS011;5392;42.688;23.298;2023-09-12T06:18:39;6.93;;;3.50;;
10687;SDS011;5392;42.688;23.298;2023-09-12T06:21:06;7.45;;;3.95;;
10687;SDS011;5392;42.688;23.298;2023-09-12T06:23:35;4.32;;;3.38;;
10687;SDS011;5392;42.688;23.298;2023-09-12T06:26:02;9.13;;;4.00;;
10687;SDS011;5392;42.688;23.298;2023-09-12T06:28:29;4.45;;;3.22;;
10687;SDS011;5392;42.688;23.298;2023-09-12T06:30:57;6.05;;;3.03;;
10687;SDS011;5392;42.688;23.298;2023-09-12T06:33:25;7.85;;;4.25;;
10687;SDS011;5392;42.688;23.298;2023-09-12T06:35:53;8.68;;;3.40;;
10687;SDS011;5392;42.688;23.298;2023-09-12T06:38:21;8.57;;;3.50;;
10687;SDS011;5392;42.688;23.298;2023-09-12T06:40:48;6.43;;;3.20;;
10687;SDS011;5392;42.688;23.298;2023-09-12T06:43:15;10.07;;;3.80;;
10687;SDS011;5392;42.688;23.298;2023-09-12T06:45:42;7.32;;;3.60;;
10687;SDS011;5392;42.688;23.298;2023-09-12T06:48:11;4.72;;;2.78;;
10687;SDS011;5392;42.688;23.298;2023-09-12T06:50:39;4.82;;;3.15;;
10687;SDS011;5392;42.688;23.298;2023-09-12T06:53:06;5.53;;;3.05;;
10687;SDS011;5392;42.688;23.298;2023-09-12T06:55:36;10.57;;;3.88;;
10687;SDS011;5392;42.688;23.298;2023-09-12T06:58:03;5.07;;;3.55;;
10687;SDS011;5392;42.688;23.298;2023-09-12T07:00:30;6.07;;;3.92;;
10687;SDS011;5392;42.688;23.298;2023-09-12T07:02:57;7.53;;;3.30;;
10687;SDS011;5392;42.688;23.298;2023-09-12T07:05:24;4.85;;;3.38;;
10687;SDS011;5392;42.688;23.298;2023-09-12T07:07:51;8.55;;;4.10;;
10687;SDS011;5392;42.688;23.298;2023-09-12T07:10:19;5.05;;;3.42;;
10687;SDS011;5392;42.688;23.298;2023-09-12T07:12:50;6.90;;;2.92;;
10687;SDS011;5392;42.688;23.298;2023-09-12T07:15:17;5.82;;;3.17;;
10687;SDS011;5392;42.688;23.298;2023-09-12T07:17:44;9.93;;;3.90;;
10687;SDS011;5392;42.688;23.298;2023-09-12T07:20:10;6.05;;;3.28;;
10687;SDS011;5392;42.688;23.298;2023-09-12T07:22:38;7.93;;;3.35;;
10687;SDS011;5392;42.688;23.298;2023-09-12T07:25:08;7.45;;;3.03;;
10687;SDS011;5392;42.688;23.298;2023-09-12T07:27:38;8.85;;;2.92;;
10687;SDS011;5392;42.688;23.298;2023-09-12T07:30:05;11.38;;;2.92;;
10687;SDS011;5392;42.688;23.298;2023-09-12T07:32:33;13.20;;;3.03;;
10687;SDS011;5392;42.688;23.298;2023-09-12T07:34:59;9.32;;;3.03;;
10687;SDS011;5392;42.688;23.298;2023-09-12T07:37:26;11.25;;;2.92;;
10687;SDS011;5392;42.688;23.298;2023-09-12T07:39:53;8.75;;;3.63;;
10687;SDS011;5392;42.688;23.298;2023-09-12T07:42:23;9.13;;;3.20;;
10687;SDS011;5392;42.688;23.298;2023-09-12T07:44:50;4.35;;;2.90;;
10687;SDS011;5392;42.688;23.298;2023-09-12T07:47:17;11.88;;;4.43;;
10687;SDS011;5392;42.688;23.298;2023-09-12T07:49:45;5.03;;;3.35;;
10687;SDS011;5392;42.688;23.298;2023-09-12T07:52:11;10.18;;;3.28;;
10687;SDS011;5392;42.688;23.298;2023-09-12T07:54:38;5.95;;;2.97;;
10687;SDS011;5392;42.688;23.298;2023-09-12T07:57:05;6.82;;;2.75;;
10687;SDS011;5392;42.688;23.298;2023-09-12T07:59:50;3.55;;;2.38;;
10687;SDS011;5392;42.688;23.298;2023-09-12T08:02:17;3.33;;;2.85;;
10687;SDS011;5392;42.688;23.298;2023-09-12T08:04:44;9.00;;;2.80;;
10687;SDS011;5392;42.688;23.298;2023-09-12T08:07:11;9.60;;;3.22;;
10687;SDS011;5392;42.688;23.298;2023-09-12T08:09:55;8.35;;;3.08;;
10687;SDS011;5392;42.688;23.298;2023-09-12T08:12:26;5.45;;;3.10;;
10687;SDS011;5392;42.688;23.298;2023-09-12T08:14:54;8.95;;;2.22;;
10687;SDS011;5392;42.688;23.298;2023-09-12T08:17:23;7.65;;;2.40;;
10687;SDS011;5392;42.688;23.298;2023-09-12T08:19:49;5.05;;;2.60;;
10687;SDS011;5392;42.688;23.298;2023-09-12T08:22:16;6.45;;;2.80;;
10687;SDS011;5392;42.688;23.298;2023-09-12T08:24:43;14.07;;;3.25;;
10687;SDS011;5392;42.688;23.298;2023-09-12T08:27:10;3.65;;;2.05;;
10687;SDS011;5392;42.688;23.298;2023-09-12T08:29:37;8.15;;;2.20;;
10687;SDS011;5392;42.688;23.298;2023-09-12T08:32:04;3.38;;;1.83;;
10687;SDS011;5392;42.688;23.298;2023-09-12T08:34:31;3.83;;;2.22;;
10687;SDS011;5392;42.688;23.298;2023-09-12T08:36:58;6.20;;;2.10;;
10687;SDS011;5392;42.688;23.298;2023-09-12T08:39:25;2.53;;;1.77;;
10687;SDS011;5392;42.688;23.298;2023-09-12T08:41:54;3.70;;;1.65;;
10687;SDS011;5392;42.688;23.298;2023-09-12T08:44:21;3.40;;;1.50;;
10687;SDS011;5392;42.688;23.298;2023-09-12T08:46:47;6.18;;;1.60;;
10687;SDS011;5392;42.688;23.298;2023-09-12T08:49:15;5.40;;;1.85;;
10687;SDS011;5392;42.688;23.298;2023-09-12T08:51:42;8.18;;;1.60;;
10687;SDS011;5392;42.688;23.298;2023-09-12T08:54:09;5.93;;;1.17;;
10687;SDS011;5392;42.688;23.298;2023-09-12T08:56:36;4.95;;;1.20;;
10687;SDS011;5392;42.688;23.298;2023-09-12T08:59:07;4.82;;;1.40;;
10687;SDS011;5392;42.688;23.298;2023-09-12T09:01:36;4.97;;;1.20;;
10687;SDS011;5392;42.688;23.298;2023-09-12T09:04:03;4.65;;;1.20;;
10687;SDS011;5392;42.688;23.298;2023-09-12T09:06:31;4.95;;;1.35;;
10687;SDS011;5392;42.688;23.298;2023-09-12T09:09:01;4.70;;;1.08;;
10687;SDS011;5392;42.688;23.298;2023-09-12T09:11:30;3.97;;;1.00;;
10687;SDS011;5392;42.688;23.298;2023-09-12T09:13:57;5.45;;;1.20;;
10687;SDS011;5392;42.688;23.298;2023-09-12T09:16:24;4.45;;;1.17;;
10687;SDS011;5392;42.688;23.298;2023-09-12T09:18:54;7.32;;;1.02;;
10687;SDS011;5392;42.688;23.298;2023-09-12T09:21:28;2.28;;;0.70;;
10687;SDS011;5392;42.688;23.298;2023-09-12T09:23:58;4.88;;;1.10;;
10687;SDS011;5392;42.688;23.298;2023-09-12T09:29:17;1.15;;;1.05;;
10687;SDS011;5392;42.688;23.298;2023-09-12T09:31:45;7.00;;;2.15;;
10687;SDS011;5392;42.688;23.298;2023-09-12T09:34:20;5.88;;;1.10;;
10687;SDS011;5392;42.688;23.298;2023-09-12T09:36:48;5.88;;;0.88;;
10687;SDS011;5392;42.688;23.298;2023-09-12T09:39:20;5.28;;;0.70;;
10687;SDS011;5392;42.688;23.298;2023-09-12T09:41:49;1.80;;;0.85;;
10687;SDS011;5392;42.688;23.298;2023-09-12T09:44:17;5.05;;;0.77;;
10687;SDS011;5392;42.688;23.298;2023-09-12T09:46:44;2.33;;;1.10;;
10687;SDS011;5392;42.688;23.298;2023-09-12T09:49:15;2.22;;;0.80;;
10687;SDS011;5392;42.688;23.298;2023-09-12T09:51:44;6.72;;;0.80;;
10687;SDS011;5392;42.688;23.298;2023-09-12T09:54:11;5.00;;;0.88;;
10687;SDS011;5392;42.688;23.298;2023-09-12T09:57:12;2.05;;;0.80;;
10687;SDS011;5392;42.688;23.298;2023-09-12T09:59:31;2.50;;;0.70;;
10687;SDS011;5392;42.688;23.298;2023-09-12T10:01:58;4.90;;;0.70;;
10687;SDS011;5392;42.688;23.298;2023-09-12T10:04:29;4.97;;;0.90;;
10687;SDS011;5392;42.688;23.298;2023-09-12T10:07:11;3.78;;;0.70;;
10687;SDS011;5392;42.688;23.298;2023-09-12T10:09:38;5.07;;;0.82;;
10687;SDS011;5392;42.688;23.298;2023-09-12T10:12:07;3.38;;;0.70;;
10687;SDS011;5392;42.688;23.298;2023-09-12T10:14:34;2.08;;;0.88;;
10687;SDS011;5392;42.688;23.298;2023-09-12T10:17:02;7.32;;;1.08;;
10687;SDS011;5392;42.688;23.298;2023-09-12T10:19:42;1.88;;;0.70;;
10687;SDS011;5392;42.688;23.298;2023-09-12T10:24:47;3.92;;;0.90;;
10687;SDS011;5392;42.688;23.298;2023-09-12T10:27:15;7.40;;;0.70;;
10687;SDS011;5392;42.688;23.298;2023-09-12T10:29:45;2.17;;;0.70;;
10687;SDS011;5392;42.688;23.298;2023-09-12T10:32:14;3.40;;;0.80;;
10687;SDS011;5392;42.688;23.298;2023-09-12T10:34:41;0.98;;;0.60;;
10687;SDS011;5392;42.688;23.298;2023-09-12T10:37:12;0.70;;;0.70;;
10687;SDS011;5392;42.688;23.298;2023-09-12T10:39:43;5.15;;;0.60;;
10687;SDS011;5392;42.688;23.298;2023-09-12T10:42:10;1.83;;;0.50;;
10687;SDS011;5392;42.688;23.298;2023-09-12T10:44:39;3.40;;;0.70;;
10687;SDS011;5392;42.688;23.298;2023-09-12T10:47:05;3.90;;;0.75;;
10687;SDS011;5392;42.688;23.298;2023-09-12T10:49:34;3.85;;;1.05;;
10687;SDS011;5392;42.688;23.298;2023-09-12T10:52:00;1.85;;;0.60;;
10687;SDS011;5392;42.688;23.298;2023-09-12T10:54:37;4.35;;;0.63;;
10687;SDS011;5392;42.688;23.298;2023-09-12T10:57:04;3.05;;;0.60;;
10687;SDS011;5392;42.688;23.298;2023-09-12T10:59:32;4.65;;;0.60;;
10687;SDS011;5392;42.688;23.298;2023-09-12T11:04:56;3.47;;;0.60;;
10687;SDS011;5392;42.688;23.298;2023-09-12T11:07:33;3.28;;;0.80;;
10687;SDS011;5392;42.688;23.298;2023-09-12T11:12:51;4.03;;;0.60;;
10687;SDS011;5392;42.688;23.298;2023-09-12T11:15:24;4.93;;;0.65;;
10687;SDS011;5392;42.688;23.298;2023-09-12T11:18:05;6.28;;;0.90;;
10687;SDS011;5392;42.688;23.298;2023-09-12T11:20:48;2.17;;;0.77;;
10687;SDS011;5392;42.688;23.298;2023-09-12T11:23:24;3.00;;;0.68;;
10687;SDS011;5392;42.688;23.298;2023-09-12T11:26:04;2.78;;;0.80;;
10687;SDS011;5392;42.688;23.298;2023-09-12T11:28:33;2.47;;;0.90;;
10687;SDS011;5392;42.688;23.298;2023-09-12T11:31:00;3.25;;;0.60;;
10687;SDS011;5392;42.688;23.298;2023-09-12T11:33:27;4.25;;;0.70;;
10687;SDS011;5392;42.688;23.298;2023-09-12T11:35:54;7.90;;;0.90;;
10687;SDS011;5392;42.688;23.298;2023-09-12T11:38:27;0.98;;;0.70;;
10687;SDS011;5392;42.688;23.298;2023-09-12T11:40:55;1.88;;;0.75;;
10687;SDS011;5392;42.688;23.298;2023-09-12T11:43:24;4.25;;;0.80;;
10687;SDS011;5392;42.688;23.298;2023-09-12T11:45:54;2.65;;;0.68;;
10687;SDS011;5392;42.688;23.298;2023-09-12T11:48:22;5.07;;;0.80;;
10687;SDS011;5392;42.688;23.298;2023-09-12T11:50:52;3.47;;;0.95;;
10687;SDS011;5392;42.688;23.298;2023-09-12T11:53:21;4.32;;;0.70;;
10687;SDS011;5392;42.688;23.298;2023-09-12T11:55:55;7.13;;;1.50;;
10687;SDS011;5392;42.688;23.298;2023-09-12T11:58:24;7.78;;;0.90;;
10687;SDS011;5392;42.688;23.298;2023-09-12T12:00:54;5.95;;;0.88;;
10687;SDS011;5392;42.688;23.298;2023-09-12T12:03:23;2.67;;;0.60;;
10687;SDS011;5392;42.688;23.298;2023-09-12T12:05:53;4.90;;;0.60;;
10687;SDS011;5392;42.688;23.298;2023-09-12T12:08:21;6.28;;;1.10;;
10687;SDS011;5392;42.688;23.298;2023-09-12T12:10:57;5.57;;;0.80;;
10687;SDS011;5392;42.688;23.298;2023-09-12T12:13:27;2.17;;;0.60;;
10687;SDS011;5392;42.688;23.298;2023-09-12T12:16:17;4.63;;;0.68;;
10687;SDS011;5392;42.688;23.298;2023-09-12T12:18:44;5.60;;;1.23;;
10687;SDS011;5392;42.688;23.298;2023-09-12T12:21:11;5.00;;;1.10;;
10687;SDS011;5392;42.688;23.298;2023-09-12T12:23:38;4.90;;;1.02;;
10687;SDS011;5392;42.688;23.298;2023-09-12T12:26:07;3.35;;;0.82;;
10687;SDS011;5392;42.688;23.298;2023-09-12T12:28:35;5.90;;;0.50;;
10687;SDS011;5392;42.688;23.298;2023-09-12T12:31:01;2.80;;;0.60;;
10687;SDS011;5392;42.688;23.298;2023-09-12T12:33:28;4.25;;;0.70;;
10687;SDS011;5392;42.688;23.298;2023-09-12T12:36:04;2.22;;;0.70;;
10687;SDS011;5392;42.688;23.298;2023-09-12T12:38:35;3.70;;;0.50;;
10687;SDS011;5392;42.688;23.298;2023-09-12T12:41:08;2.83;;;0.60;;
10687;SDS011;5392;42.688;23.298;2023-09-12T12:43:34;3.55;;;0.70;;
10687;SDS011;5392;42.688;23.298;2023-09-12T12:46:02;5.03;;;0.60;;
10687;SDS011;5392;42.688;23.298;2023-09-12T12:48:32;6.28;;;0.90;;
10687;SDS011;5392;42.688;23.298;2023-09-12T12:51:11;3.20;;;0.60;;
10687;SDS011;5392;42.688;23.298;2023-09-12T12:53:40;1.02;;;0.70;;
10687;SDS011;5392;42.688;23.298;2023-09-12T12:56:19;8.25;;;0.90;;
10687;SDS011;5392;42.688;23.298;2023-09-12T12:58:51;1.83;;;0.55;;
10687;SDS011;5392;42.688;23.298;2023-09-12T13:01:18;2.55;;;0.80;;
10687;SDS011;5392;42.688;23.298;2023-09-12T13:03:45;1.80;;;0.70;;
10687;SDS011;5392;42.688;23.298;2023-09-12T13:06:13;2.53;;;0.50;;
10687;SDS011;5392;42.688;23.298;2023-09-12T13:08:41;3.92;;;0.63;;
10687;SDS011;5392;42.688;23.298;2023-09-12T13:11:11;1.83;;;1.05;;
10687;SDS011;5392;42.688;23.298;2023-09-12T13:13:43;3.38;;;0.63;;
10687;SDS011;5392;42.688;23.298;2023-09-12T13:16:12;0.50;;;0.50;;
10687;SDS011;5392;42.688;23.298;2023-09-12T13:18:40;2.80;;;0.70;;
10687;SDS011;5392;42.688;23.298;2023-09-12T13:21:08;2.30;;;0.60;;
10687;SDS011;5392;42.688;23.298;2023-09-12T13:23:35;2.03;;;0.65;;
10687;SDS011;5392;42.688;23.298;2023-09-12T13:26:03;3.83;;;0.70;;
10687;SDS011;5392;42.688;23.298;2023-09-12T13:28:31;5.65;;;0.70;;
10687;SDS011;5392;42.688;23.298;2023-09-12T13:30:58;3.42;;;0.60;;
10687;SDS011;5392;42.688;23.298;2023-09-12T13:33:24;3.55;;;0.70;;
10687;SDS011;5392;42.688;23.298;2023-09-12T13:35:51;1.52;;;0.73;;
10687;SDS011;5392;42.688;23.298;2023-09-12T13:38:18;4.38;;;0.70;;
10687;SDS011;5392;42.688;23.298;2023-09-12T13:40:46;5.18;;;0.70;;
10687;SDS011;5392;42.688;23.298;2023-09-12T13:43:12;8.18;;;1.20;;
10687;SDS011;5392;42.688;23.298;2023-09-12T13:45:39;4.97;;;0.70;;
10687;SDS011;5392;42.688;23.298;2023-09-12T13:48:06;3.83;;;0.85;;
10687;SDS011;5392;42.688;23.298;2023-09-12T13:50:34;4.10;;;0.93;;
10687;SDS011;5392;42.688;23.298;2023-09-12T13:53:01;4.05;;;0.70;;
10687;SDS011;5392;42.688;23.298;2023-09-12T13:55:33;5.30;;;0.85;;
10687;SDS011;5392;42.688;23.298;2023-09-12T13:58:21;7.15;;;0.82;;
10687;SDS011;5392;42.688;23.298;2023-09-12T14:00:48;2.97;;;1.10;;
10687;SDS011;5392;42.688;23.298;2023-09-12T14:03:15;2.67;;;0.80;;
10687;SDS011;5392;42.688;23.298;2023-09-12T14:05:42;2.15;;;1.10;;
10687;SDS011;5392;42.688;23.298;2023-09-12T14:08:10;9.20;;;1.80;;
10687;SDS011;5392;42.688;23.298;2023-09-12T14:10:37;5.07;;;0.70;;
10687;SDS011;5392;42.688;23.298;2023-09-12T14:13:07;4.78;;;1.20;;
10687;SDS011;5392;42.688;23.298;2023-09-12T14:15:37;4.95;;;1.08;;
10687;SDS011;5392;42.688;23.298;2023-09-12T14:18:04;4.10;;;0.95;;
10687;SDS011;5392;42.688;23.298;2023-09-12T14:20:31;4.40;;;0.70;;
10687;SDS011;5392;42.688;23.298;2023-09-12T14:22:58;3.95;;;0.80;;
10687;SDS011;5392;42.688;23.298;2023-09-12T14:25:25;3.65;;;0.70;;
10687;SDS011;5392;42.688;23.298;2023-09-12T14:27:53;4.20;;;1.25;;
10687;SDS011;5392;42.688;23.298;2023-09-12T14:30:20;2.35;;;0.60;;
10687;SDS011;5392;42.688;23.298;2023-09-12T14:32:48;1.75;;;0.60;;
10687;SDS011;5392;42.688;23.298;2023-09-12T14:35:15;3.35;;;0.60;;
10687;SDS011;5392;42.688;23.298;2023-09-12T14:37:42;3.22;;;0.60;;
10687;SDS011;5392;42.688;23.298;2023-09-12T14:40:09;2.80;;;0.60;;
10687;SDS011;5392;42.688;23.298;2023-09-12T14:42:38;2.53;;;0.63;;
10687;SDS011;5392;42.688;23.298;2023-09-12T14:45:04;2.85;;;0.60;;
10687;SDS011;5392;42.688;23.298;2023-09-12T14:47:32;5.93;;;0.60;;
10687;SDS011;5392;42.688;23.298;2023-09-12T14:49:59;6.53;;;0.95;;
10687;SDS011;5392;42.688;23.298;2023-09-12T14:52:26;7.68;;;0.80;;
10687;SDS011;5392;42.688;23.298;2023-09-12T14:54:56;2.85;;;0.65;;
10687;SDS011;5392;42.688;23.298;2023-09-12T14:57:25;4.07;;;0.60;;
10687;SDS011;5392;42.688;23.298;2023-09-12T14:59:52;2.47;;;0.80;;
10687;SDS011;5392;42.688;23.298;2023-09-12T15:02:19;3.70;;;1.10;;
10687;SDS011;5392;42.688;23.298;2023-09-12T15:04:46;3.75;;;0.65;;
10687;SDS011;5392;42.688;23.298;2023-09-12T15:07:12;2.00;;;0.60;;
10687;SDS011;5392;42.688;23.298;2023-09-12T15:09:39;2.88;;;0.68;;